createdAt,value
2022-12-23T00:00:39.332Z,9.20
2022-12-23T00:03:12.684Z,9.20
2022-12-23T00:05:41.285Z,9.20
2022-12-23T00:08:08.173Z,9.20
2022-12-23T00:13:27.411Z,9.20
2022-12-23T00:25:42.264Z,9.20
2022-12-23T00:31:20.172Z,9.20
2022-12-23T00:34:04.097Z,9.10
2022-12-23T00:36:39.444Z,9.10
2022-12-23T00:39:15.420Z,9.10
2022-12-23T00:41:46.521Z,9.10
2022-12-23T00:44:16.106Z,9.10
2022-12-23T00:46:55.057Z,9.10
2022-12-23T00:49:39.160Z,9.10
2022-12-23T00:52:08.197Z,9.20
2022-12-23T00:54:40.943Z,9.20
2022-12-23T00:57:14.069Z,9.10
2022-12-23T00:59:40.786Z,9.20
2022-12-23T01:02:18.728Z,9.20
2022-12-23T01:04:51.371Z,9.10
2022-12-23T01:07:24.632Z,9.10
2022-12-23T01:10:09.708Z,9.20
2022-12-23T01:12:52.022Z,9.10
2022-12-23T01:15:33.348Z,9.10
2022-12-23T01:18:00.060Z,9.20
2022-12-23T01:20:26.926Z,9.10
2022-12-23T01:23:01.995Z,9.10
2022-12-23T01:25:34.869Z,9.10
2022-12-23T01:28:14.791Z,9.10
2022-12-23T01:30:49.143Z,9.20
2022-12-23T01:33:26.620Z,9.10
2022-12-23T01:36:19.475Z,9.10
2022-12-23T01:38:46.768Z,9.20
2022-12-23T01:41:22.870Z,9.10
2022-12-23T01:43:52.651Z,9.20
2022-12-23T01:46:28.304Z,9.10
2022-12-23T01:51:47.207Z,9.10
2022-12-23T01:54:25.840Z,9.10
2022-12-23T01:57:07.727Z,9.10
2022-12-23T01:59:39.648Z,9.10
2022-12-23T02:02:12.727Z,9.00
2022-12-23T02:04:50.171Z,9.00
2022-12-23T02:07:29.572Z,9.00
2022-12-23T02:10:09.515Z,9.00
2022-12-23T02:12:57.795Z,9.00
2022-12-23T02:16:09.174Z,9.00
2022-12-23T02:22:20.332Z,9.00
2022-12-23T02:28:21.479Z,9.00
2022-12-23T02:31:33.177Z,9.00
2022-12-23T02:37:34.774Z,9.00
2022-12-23T02:40:19.842Z,8.90
2022-12-23T02:43:10.755Z,8.90
2022-12-23T02:46:21.535Z,8.90
2022-12-23T02:51:56.480Z,8.90
2022-12-23T02:54:36.928Z,8.90
2022-12-23T02:57:21.618Z,8.90
2022-12-23T02:59:50.844Z,8.90
2022-12-23T03:02:18.677Z,8.90
2022-12-23T03:04:45.658Z,8.90
2022-12-23T03:07:30.246Z,8.90
2022-12-23T03:10:08.596Z,8.90
2022-12-23T03:13:21.944Z,8.90
2022-12-23T03:16:27.031Z,8.90
2022-12-23T03:19:41.546Z,8.80
2022-12-23T03:22:48.348Z,8.80
2022-12-23T03:25:33.773Z,8.80
2022-12-23T03:28:57.874Z,8.70
2022-12-23T03:31:41.206Z,8.70
2022-12-23T03:34:22.130Z,8.70
2022-12-23T03:36:55.863Z,8.70
2022-12-23T03:39:57.525Z,8.70
2022-12-23T03:42:42.102Z,8.60
2022-12-23T03:45:41.506Z,8.70
2022-12-23T03:48:38.687Z,8.70
2022-12-23T03:51:16.530Z,8.60
2022-12-23T03:53:50.614Z,8.70
2022-12-23T03:56:50.486Z,8.70
2022-12-23T03:59:36.291Z,8.70
2022-12-23T04:02:41.925Z,8.70
2022-12-23T04:05:53.047Z,8.60
2022-12-23T04:08:52.472Z,8.60
2022-12-23T04:11:35.991Z,8.60
2022-12-23T04:14:02.844Z,8.60
2022-12-23T04:16:41.018Z,8.60
2022-12-23T04:19:10.493Z,8.60
2022-12-23T04:24:17.951Z,8.60
2022-12-23T04:26:47.295Z,8.60
2022-12-23T04:29:19.907Z,8.60
2022-12-23T04:32:01.784Z,8.50
2022-12-23T04:34:43.006Z,8.50
2022-12-23T04:37:10.839Z,8.50
2022-12-23T04:39:46.840Z,8.50
2022-12-23T04:42:13.549Z,8.50
2022-12-23T04:44:48.992Z,8.50
2022-12-23T04:47:25.933Z,8.50
2022-12-23T04:50:22.860Z,8.50
2022-12-23T04:52:51.917Z,8.50
2022-12-23T04:55:30.659Z,8.50
2022-12-23T04:58:12.328Z,8.50
2022-12-23T05:00:49.221Z,8.50
2022-12-23T05:03:27.732Z,8.50
2022-12-23T05:06:04.103Z,8.50
2022-12-23T05:08:49.430Z,8.50
2022-12-23T05:11:30.704Z,8.50
2022-12-23T05:16:28.989Z,8.50
2022-12-23T05:18:57.482Z,8.60
2022-12-23T05:21:24.321Z,8.60
2022-12-23T05:23:54.255Z,8.60
2022-12-23T05:26:26.958Z,8.60
2022-12-23T05:31:48.394Z,8.60
2022-12-23T05:34:24.074Z,8.60
2022-12-23T05:39:46.981Z,8.50
2022-12-23T05:42:13.781Z,8.50
2022-12-23T05:44:40.662Z,8.50
2022-12-23T05:47:10.329Z,8.50
2022-12-23T05:49:37.273Z,8.50
2022-12-23T05:52:05.151Z,8.50
2022-12-23T05:54:43.590Z,8.50
2022-12-23T05:59:54.493Z,8.50
2022-12-23T06:02:33.500Z,8.50
2022-12-23T06:05:00.427Z,8.40
2022-12-23T06:07:39.716Z,8.40
2022-12-23T06:10:24.550Z,8.40
2022-12-23T06:13:12.235Z,8.40
2022-12-23T06:15:57.675Z,8.40
2022-12-23T06:18:42.073Z,8.40
2022-12-23T06:21:14.932Z,8.40
2022-12-23T06:23:53.053Z,8.40
2022-12-23T06:26:20.202Z,8.40
2022-12-23T06:28:56.141Z,8.50
2022-12-23T06:31:22.799Z,8.50
2022-12-23T06:33:58.616Z,8.50
2022-12-23T06:36:45.794Z,8.50
2022-12-23T06:39:27.324Z,8.50
2022-12-23T06:42:08.871Z,8.50
2022-12-23T06:44:41.903Z,8.50
2022-12-23T06:50:58.825Z,8.50
2022-12-23T06:53:33.573Z,8.40
2022-12-23T07:22:15.116Z,8.50
2022-12-23T07:24:50.934Z,8.50
2022-12-23T07:34:02.723Z,8.50
2022-12-23T07:36:41.803Z,8.50
2022-12-23T07:39:17.684Z,8.50
2022-12-23T07:42:16.372Z,8.50
2022-12-23T07:47:41.953Z,8.50
2022-12-23T07:50:24.370Z,8.60
2022-12-23T07:53:03.049Z,8.60
2022-12-23T07:58:52.816Z,8.60
2022-12-23T08:01:28.302Z,8.60
2022-12-23T08:04:04.326Z,8.60
2022-12-23T08:06:35.519Z,8.60
2022-12-23T08:09:05.298Z,8.60
2022-12-23T08:11:43.970Z,8.60
2022-12-23T08:14:19.218Z,8.60
2022-12-23T08:16:52.032Z,8.60
2022-12-23T08:19:31.011Z,8.60
2022-12-23T08:22:19.091Z,8.60
2022-12-23T08:25:00.688Z,8.60
2022-12-23T08:27:39.018Z,8.60
2022-12-23T08:30:14.444Z,8.70
2022-12-23T08:32:59.750Z,8.70
2022-12-23T08:35:35.495Z,8.70
2022-12-23T08:38:17.362Z,8.70
2022-12-23T08:40:47.493Z,8.70
2022-12-23T08:43:17.740Z,8.70
2022-12-23T08:45:47.922Z,8.80
2022-12-23T08:48:22.153Z,8.80
2022-12-23T08:51:07.013Z,8.80
2022-12-23T08:53:46.722Z,8.80
2022-12-23T08:56:20.131Z,8.80
2022-12-23T08:58:56.016Z,8.80
2022-12-23T09:01:45.148Z,8.80
2022-12-23T09:04:37.933Z,8.80
2022-12-23T09:07:22.777Z,8.80
2022-12-23T09:10:10.734Z,8.80
2022-12-23T09:12:57.995Z,8.80
2022-12-23T09:18:50.556Z,8.90
2022-12-23T09:29:35.504Z,8.90
2022-12-23T09:32:21.151Z,8.90
2022-12-23T09:34:56.967Z,8.90
2022-12-23T09:37:23.787Z,8.90
2022-12-23T09:40:14.901Z,8.90
2022-12-23T09:43:51.331Z,8.90
2022-12-23T09:46:38.390Z,8.90
2022-12-23T09:49:18.019Z,8.90
2022-12-23T09:54:58.144Z,8.90
2022-12-23T10:04:33.921Z,8.90
2022-12-23T10:07:22.781Z,9.00
2022-12-23T10:10:14.729Z,9.00
2022-12-23T10:12:55.103Z,9.00
2022-12-23T10:15:44.724Z,9.00
2022-12-23T10:22:17.057Z,9.10
2022-12-23T10:25:02.062Z,9.10
2022-12-23T10:27:42.711Z,9.10
2022-12-23T10:39:41.004Z,9.10
2022-12-23T10:43:18.673Z,9.10
2022-12-23T10:49:47.997Z,9.10
2022-12-23T10:55:37.155Z,9.10
2022-12-23T10:58:15.368Z,9.20
2022-12-23T11:04:13.752Z,9.10
2022-12-23T11:07:18.322Z,9.10
2022-12-23T11:13:11.838Z,9.20
2022-12-23T11:15:55.147Z,9.20
2022-12-23T11:18:27.261Z,9.10
2022-12-23T11:21:05.773Z,9.10
2022-12-23T11:23:41.166Z,9.10
2022-12-23T11:26:20.539Z,9.10
2022-12-23T11:32:35.751Z,9.10
2022-12-23T11:35:44.742Z,9.10
2022-12-23T11:38:23.555Z,9.10
2022-12-23T11:40:53.537Z,9.10
2022-12-23T11:43:27.557Z,9.10
2022-12-23T11:46:32.615Z,9.10
2022-12-23T11:49:34.185Z,9.00
2022-12-23T11:52:14.083Z,9.00
2022-12-23T11:55:21.785Z,9.00
2022-12-23T11:57:49.877Z,9.10
2022-12-23T14:05:00.200Z,8.90
2022-12-23T14:31:05.606Z,9.00
2022-12-23T17:13:12.115Z,9.00
2022-12-23T17:55:59.846Z,9.70
2022-12-23T17:58:29.738Z,9.80
2022-12-23T18:01:36.154Z,9.80
2022-12-23T19:37:06.803Z,9.80
2022-12-23T19:42:12.665Z,9.80
2022-12-23T19:44:45.511Z,9.80
2022-12-23T20:36:40.705Z,10.00
2022-12-23T20:46:14.152Z,10.00
2022-12-23T20:55:20.741Z,10.00
2022-12-23T20:58:16.073Z,10.00
2022-12-23T21:50:39.565Z,9.90
2022-12-23T22:18:09.498Z,9.70
2022-12-23T22:20:45.849Z,9.60
2022-12-23T22:23:13.468Z,9.50
2022-12-23T22:25:43.011Z,9.40
2022-12-23T22:28:22.692Z,9.40
2022-12-23T22:31:18.692Z,9.40
2022-12-23T22:34:02.082Z,9.40
2022-12-23T22:53:40.518Z,9.40
2022-12-23T22:56:19.829Z,9.50
2022-12-23T22:58:58.160Z,9.50
2022-12-23T23:02:02.187Z,9.50
2022-12-23T23:04:31.599Z,9.50
2022-12-23T23:07:03.595Z,9.50
2022-12-23T23:13:32.415Z,9.40
2022-12-23T23:16:09.685Z,9.50
2022-12-23T23:44:43.343Z,9.60
2022-12-23T23:47:24.442Z,9.60
2022-12-23T23:50:04.313Z,9.60
2022-12-23T23:52:33.471Z,9.60
